Airfield :
LOGIN :

Register | Disclaimer

   EN    FR    IT 

 










Legend :    VFR   Marginal VFR   IFR   Intensive IFR   Very Intensive IFR
Visi :
Ceiling :
>= 8 km
>= 3000ft
5 to 8 km
1000 to 3000 ft
1500m to 5 km
500 to 1000 ft
800 to 1500m
200 to 500 ft
< 800m
< 200 ft
Symbols :   Thunderstorms  Fog  Heavy snow  Heavy precipitations  Wind > 20 kt
SIGMETs :     Misc.  Thunderstorms  Icing  Turbulence  Mountain Waves  Volcanic Ashes






- Airport Elevation : 37 ft
- IATA code : HLY


EGOV - RAF Valley

CURRENT METAR :
  • 090650Z 04002KT CAVOK 16/12 Q1030 NOSIG RMK BLU BLU

EXPIRED METARs :
  • 090620Z AUTO 05002KT 9999 NCD 15/12 Q1030
  • 090550Z AUTO 06003KT 9999 NCD 14/10 Q1030
  • 090520Z AUTO 04003KT 9999 NCD 12/09 Q1029
  • 090450Z AUTO 07004KT 9999 NCD 12/09 Q1029
  • 090420Z AUTO 07003KT 9999 NCD 12/08 Q1029

TAF TAF EGOV
Valid from the 09 at 07:00 until the 09 at 15:00 UTC


090455Z 0907/0915 07004KT CAVOK



MET'MAP, your aeronautical weather chart ! - Copyright ORBIFLY December 2007 - Disclaimer

ORBIFLY MET'MAP TEAM :

Programming & Development : Alexandra Zaïnal
Original concept : Baudouin d'Aumeries
Technical & hardware support : Manuel Goepfert
Assistance : Marc-Olivier Méhu




SOURCES & CREDITS :

   NOAA